Puerto De La Cruz, Spain
Current Conditions -  °F | °C
As of 9:30 AM on Sunday 23 Nov 2014 (Local Time) from GCXO Reporting Station
Broken Clouds Broken Clouds  
Wind Chill: 57°   Ceiling: 2200
Heat Index: 57°   Visibility: 6mi
Dew Point: 55°   Wind: 31mph
Humidity: 94%   Direction: 310°NW
Pressure: 29.94"   Gusts: 46mph
Location:  28.41°N, 16.55°W
Report Text: GCXO 230930Z 31027G40KT 9999 SCT007 BKN022 14/13 Q1014 RERA WS R30 NOSIG
Loading
Personal Weather Stations






























Interactive Weather Map New forecast layout! Learn more

10-Day Weather Forecast

Advertisements
Track Severe Weather on mobile